aviador You're here:

KAOH Decoded Metar

LIMA in OH, USA
Report Time2018-02-25 22:53:00
UTC Time2018-02-25 23:39:20
Flight Rules vfr VFR
Wind250° at 14 kt
W.Decomp.*RWY 28: 12.8 kt HW 5.7 kt LCW
RWY 32: 6.1 kt HW 12.6 kt LCW
W.Rank250° ranks 4
Current wind is above 250° avg. (10.6)
Visibility9999 m
Phenomena:N/A
Clouds:N/A
Expected CloudBase > 2,000 ft AGL from Temp-Dew spread
CeilingNone
Temp06°C (ISA -7)
Dew Point01°C (71% RH)
AAT-0.9°C
QNH1017 hPa
Density Alt79 ft
Elevation971 ft
Report Wrong Elevation
Raw Report
METAR KAOH 252253Z AUTO 25014KT 10SM CLR 06/01 A3002 RMK AO2 SLP171
T00560011=

Extra information for KAOH:More info

Metar Taf Metar & Taf Last 4 Metars F.Rules Stats Wind Profile Meteogram Temp Stats Airport Information Weather charts Add Link Nearby VenuesMetar ALERT Operation Metar Decoded Social comments

AIRNAV info for KAOH